sensor_id;sensor_type;location;lat;lon;timestamp;pressure;altitude;pressure_sealevel;temperature;humidity
65784;BME280;52532;53.358;-1.488;2022-11-18T00:02:25;97761.86;;;8.65;85.61
65784;BME280;52532;53.358;-1.488;2022-11-18T00:05:27;97771.12;;;8.56;85.40
65784;BME280;52532;53.358;-1.488;2022-11-18T00:08:31;97774.87;;;7.57;88.93
65784;BME280;52532;53.358;-1.488;2022-11-18T00:11:34;97775.14;;;8.04;87.95
65784;BME280;52532;53.358;-1.488;2022-11-18T00:16:52;97780.06;;;8.18;87.61
65784;BME280;52532;53.358;-1.488;2022-11-18T00:19:56;97780.37;;;8.16;87.91
65784;BME280;52532;53.358;-1.488;2022-11-18T00:22:58;97783.47;;;9.05;82.40
65784;BME280;52532;53.358;-1.488;2022-11-18T00:26:02;97786.83;;;9.31;83.87
65784;BME280;52532;53.358;-1.488;2022-11-18T00:29:08;97794.29;;;7.80;89.30
65784;BME280;52532;53.358;-1.488;2022-11-18T00:32:11;97787.07;;;9.64;82.96
65784;BME280;52532;53.358;-1.488;2022-11-18T00:35:15;97792.38;;;7.58;88.50
65784;BME280;52532;53.358;-1.488;2022-11-18T00:38:17;97790.04;;;7.25;91.99
65784;BME280;52532;53.358;-1.488;2022-11-18T00:41:20;97797.36;;;8.57;88.21
65784;BME280;52532;53.358;-1.488;2022-11-18T00:44:28;97805.13;;;8.52;86.72
65784;BME280;52532;53.358;-1.488;2022-11-18T00:47:31;97810.07;;;7.37;92.41
65784;BME280;52532;53.358;-1.488;2022-11-18T00:50:34;97813.68;;;7.65;93.91
65784;BME280;52532;53.358;-1.488;2022-11-18T00:53:38;97813.87;;;8.21;90.80
65784;BME280;52532;53.358;-1.488;2022-11-18T00:56:41;97816.26;;;8.64;89.21
65784;BME280;52532;53.358;-1.488;2022-11-18T00:59:44;97823.81;;;8.70;86.77
65784;BME280;52532;53.358;-1.488;2022-11-18T01:02:47;97825.55;;;9.21;83.82
65784;BME280;52532;53.358;-1.488;2022-11-18T01:05:50;97826.60;;;8.39;84.44
65784;BME280;52532;53.358;-1.488;2022-11-18T01:08:53;97823.88;;;8.21;86.58
65784;BME280;52532;53.358;-1.488;2022-11-18T01:11:56;97827.97;;;8.21;84.66
65784;BME280;52532;53.358;-1.488;2022-11-18T01:17:10;97831.56;;;8.12;85.91
65784;BME280;52532;53.358;-1.488;2022-11-18T01:20:14;97838.59;;;8.43;86.41
65784;BME280;52532;53.358;-1.488;2022-11-18T01:23:18;97835.64;;;10.00;80.42
65784;BME280;52532;53.358;-1.488;2022-11-18T01:26:21;97840.37;;;8.84;82.30
65784;BME280;52532;53.358;-1.488;2022-11-18T01:29:24;97843.83;;;8.00;86.82
65784;BME280;52532;53.358;-1.488;2022-11-18T01:32:27;97852.30;;;8.21;85.23
65784;BME280;52532;53.358;-1.488;2022-11-18T01:35:33;97856.90;;;8.34;86.64
65784;BME280;52532;53.358;-1.488;2022-11-18T01:38:36;97854.45;;;8.53;83.58
65784;BME280;52532;53.358;-1.488;2022-11-18T01:41:39;97864.14;;;7.68;88.47
65784;BME280;52532;53.358;-1.488;2022-11-18T01:45:00;97867.12;;;7.86;86.92
65784;BME280;52532;53.358;-1.488;2022-11-18T01:48:08;97867.93;;;8.32;87.39
65784;BME280;52532;53.358;-1.488;2022-11-18T01:51:16;97865.59;;;8.58;86.36
65784;BME280;52532;53.358;-1.488;2022-11-18T01:54:23;97878.05;;;6.84;92.39
65784;BME280;52532;53.358;-1.488;2022-11-18T01:57:28;97879.48;;;8.09;86.61
65784;BME280;52532;53.358;-1.488;2022-11-18T02:00:33;97887.46;;;7.61;88.88
65784;BME280;52532;53.358;-1.488;2022-11-18T02:03:37;97889.34;;;8.53;86.19
65784;BME280;52532;53.358;-1.488;2022-11-18T02:06:41;97887.12;;;8.11;88.34
65784;BME280;52532;53.358;-1.488;2022-11-18T02:09:44;97905.11;;;7.54;89.96
65784;BME280;52532;53.358;-1.488;2022-11-18T02:12:48;97912.88;;;8.61;85.78
65784;BME280;52532;53.358;-1.488;2022-11-18T02:15:58;97917.36;;;9.88;81.26
65784;BME280;52532;53.358;-1.488;2022-11-18T02:19:13;97920.71;;;8.83;80.75
65784;BME280;52532;53.358;-1.488;2022-11-18T02:22:34;97913.18;;;9.71;81.55
65784;BME280;52532;53.358;-1.488;2022-11-18T02:25:56;97915.34;;;8.77;84.82
65784;BME280;52532;53.358;-1.488;2022-11-18T02:29:07;97913.01;;;9.37;82.26
65784;BME280;52532;53.358;-1.488;2022-11-18T02:32:14;97919.01;;;8.72;81.25
65784;BME280;52532;53.358;-1.488;2022-11-18T02:35:25;97919.00;;;9.40;80.94
65784;BME280;52532;53.358;-1.488;2022-11-18T02:38:33;97925.60;;;9.38;80.21
65784;BME280;52532;53.358;-1.488;2022-11-18T02:41:44;97927.50;;;8.43;83.59
65784;BME280;52532;53.358;-1.488;2022-11-18T02:44:57;97936.02;;;7.54;88.02
65784;BME280;52532;53.358;-1.488;2022-11-18T02:48:06;97934.76;;;7.97;87.75
65784;BME280;52532;53.358;-1.488;2022-11-18T02:51:11;97942.04;;;8.25;87.44
65784;BME280;52532;53.358;-1.488;2022-11-18T02:54:16;97941.39;;;8.03;88.17
65784;BME280;52532;53.358;-1.488;2022-11-18T02:57:21;97937.65;;;8.90;84.18
65784;BME280;52532;53.358;-1.488;2022-11-18T03:00:26;97933.66;;;8.47;84.24
65784;BME280;52532;53.358;-1.488;2022-11-18T03:03:31;97932.93;;;9.25;82.68
65784;BME280;52532;53.358;-1.488;2022-11-18T03:06:36;97942.04;;;7.85;87.17
65784;BME280;52532;53.358;-1.488;2022-11-18T03:09:43;97934.83;;;7.95;85.49
65784;BME280;52532;53.358;-1.488;2022-11-18T03:12:53;97945.07;;;7.73;86.35
65784;BME280;52532;53.358;-1.488;2022-11-18T03:16:01;97948.67;;;7.21;88.45
65784;BME280;52532;53.358;-1.488;2022-11-18T03:19:11;97949.90;;;8.31;86.60
65784;BME280;52532;53.358;-1.488;2022-11-18T03:22:22;97956.83;;;9.84;81.49
65784;BME280;52532;53.358;-1.488;2022-11-18T03:25:36;97959.87;;;8.71;85.01
65784;BME280;52532;53.358;-1.488;2022-11-18T03:28:43;97963.51;;;7.98;87.03
65784;BME280;52532;53.358;-1.488;2022-11-18T03:31:49;97973.44;;;7.73;85.87
65784;BME280;52532;53.358;-1.488;2022-11-18T03:34:59;97978.72;;;8.18;85.84
65784;BME280;52532;53.358;-1.488;2022-11-18T03:38:07;97982.02;;;8.65;84.83
65784;BME280;52532;53.358;-1.488;2022-11-18T03:41:14;97983.55;;;7.54;88.93
65784;BME280;52532;53.358;-1.488;2022-11-18T03:44:22;97985.19;;;7.37;88.30
65784;BME280;52532;53.358;-1.488;2022-11-18T03:47:29;97988.95;;;6.93;89.49
65784;BME280;52532;53.358;-1.488;2022-11-18T03:50:36;97999.79;;;6.53;92.93
65784;BME280;52532;53.358;-1.488;2022-11-18T03:53:44;98004.04;;;7.88;88.41
65784;BME280;52532;53.358;-1.488;2022-11-18T03:56:53;98011.43;;;7.81;88.41
65784;BME280;52532;53.358;-1.488;2022-11-18T04:00:03;98020.42;;;9.89;81.00
65784;BME280;52532;53.358;-1.488;2022-11-18T04:03:08;98026.25;;;8.93;83.36
65784;BME280;52532;53.358;-1.488;2022-11-18T04:06:19;98028.41;;;8.61;85.71
65784;BME280;52532;53.358;-1.488;2022-11-18T04:09:27;98034.31;;;8.80;83.94
65784;BME280;52532;53.358;-1.488;2022-11-18T04:12:33;98043.23;;;8.80;83.03
65784;BME280;52532;53.358;-1.488;2022-11-18T04:15:40;98040.46;;;8.12;84.83
65784;BME280;52532;53.358;-1.488;2022-11-18T04:18:43;98041.28;;;7.41;88.61
65784;BME280;52532;53.358;-1.488;2022-11-18T04:21:47;98040.64;;;6.61;90.78
65784;BME280;52532;53.358;-1.488;2022-11-18T04:24:50;98054.07;;;7.46;87.32
65784;BME280;52532;53.358;-1.488;2022-11-18T04:27:53;98061.42;;;8.72;84.05
65784;BME280;52532;53.358;-1.488;2022-11-18T04:30:55;98067.49;;;8.40;81.77
65784;BME280;52532;53.358;-1.488;2022-11-18T04:33:58;98085.96;;;8.32;84.08
65784;BME280;52532;53.358;-1.488;2022-11-18T04:37:01;98082.43;;;9.18;80.12
65784;BME280;52532;53.358;-1.488;2022-11-18T04:40:05;98089.87;;;8.26;82.68
65784;BME280;52532;53.358;-1.488;2022-11-18T04:43:08;98102.72;;;7.99;81.30
65784;BME280;52532;53.358;-1.488;2022-11-18T04:46:11;98099.90;;;9.04;79.14
65784;BME280;52532;53.358;-1.488;2022-11-18T04:49:14;98107.58;;;9.64;79.88
65784;BME280;52532;53.358;-1.488;2022-11-18T04:52:17;98109.39;;;9.43;78.41
65784;BME280;52532;53.358;-1.488;2022-11-18T04:55:20;98117.75;;;8.54;80.24
65784;BME280;52532;53.358;-1.488;2022-11-18T04:58:23;98125.98;;;10.17;76.78
65784;BME280;52532;53.358;-1.488;2022-11-18T05:01:27;98127.99;;;9.91;76.28
65784;BME280;52532;53.358;-1.488;2022-11-18T05:04:32;98135.26;;;10.65;73.32
65784;BME280;52532;53.358;-1.488;2022-11-18T05:07:35;98134.38;;;9.30;76.66
65784;BME280;52532;53.358;-1.488;2022-11-18T05:10:38;98153.04;;;8.86;80.40
65784;BME280;52532;53.358;-1.488;2022-11-18T05:13:41;98153.42;;;9.46;77.77
65784;BME280;52532;53.358;-1.488;2022-11-18T05:16:44;98160.19;;;9.34;77.78
65784;BME280;52532;53.358;-1.488;2022-11-18T05:19:47;98158.05;;;9.40;77.41
65784;BME280;52532;53.358;-1.488;2022-11-18T05:22:50;98154.99;;;9.70;76.56
65784;BME280;52532;53.358;-1.488;2022-11-18T05:25:53;98176.28;;;7.90;80.78
65784;BME280;52532;53.358;-1.488;2022-11-18T05:28:56;98171.72;;;8.90;81.59
65784;BME280;52532;53.358;-1.488;2022-11-18T05:31:58;98178.24;;;8.17;83.74
65784;BME280;52532;53.358;-1.488;2022-11-18T05:35:01;98181.26;;;7.69;82.37
65784;BME280;52532;53.358;-1.488;2022-11-18T05:38:04;98180.57;;;8.18;85.93
65784;BME280;52532;53.358;-1.488;2022-11-18T05:41:08;98194.92;;;7.42;86.59
65784;BME280;52532;53.358;-1.488;2022-11-18T05:44:11;98212.04;;;7.29;86.08
65784;BME280;52532;53.358;-1.488;2022-11-18T05:47:14;98211.41;;;8.66;81.38
65784;BME280;52532;53.358;-1.488;2022-11-18T05:50:17;98211.66;;;9.13;78.06
65784;BME280;52532;53.358;-1.488;2022-11-18T05:53:21;98223.97;;;11.31;71.95
65784;BME280;52532;53.358;-1.488;2022-11-18T05:56:28;98237.41;;;8.81;78.84
65784;BME280;52532;53.358;-1.488;2022-11-18T05:59:31;98231.46;;;9.02;79.26
65784;BME280;52532;53.358;-1.488;2022-11-18T06:02:34;98231.06;;;8.64;83.62
65784;BME280;52532;53.358;-1.488;2022-11-18T06:05:37;98249.98;;;8.90;81.41
65784;BME280;52532;53.358;-1.488;2022-11-18T06:08:42;98250.93;;;9.70;77.59
65784;BME280;52532;53.358;-1.488;2022-11-18T06:11:50;98257.18;;;10.62;73.23
65784;BME280;52532;53.358;-1.488;2022-11-18T06:14:55;98263.06;;;11.88;68.93
65784;BME280;52532;53.358;-1.488;2022-11-18T06:18:02;98264.34;;;9.62;74.26
65784;BME280;52532;53.358;-1.488;2022-11-18T06:21:06;98268.54;;;10.33;73.90
65784;BME280;52532;53.358;-1.488;2022-11-18T06:24:09;98274.24;;;8.93;77.57
65784;BME280;52532;53.358;-1.488;2022-11-18T06:27:13;98284.23;;;8.98;77.61
65784;BME280;52532;53.358;-1.488;2022-11-18T06:30:19;98280.23;;;10.99;72.90
65784;BME280;52532;53.358;-1.488;2022-11-18T06:33:24;98290.76;;;10.13;76.10
65784;BME280;52532;53.358;-1.488;2022-11-18T06:36:26;98297.87;;;9.01;78.40
65784;BME280;52532;53.358;-1.488;2022-11-18T06:39:29;98298.52;;;8.81;78.53
65784;BME280;52532;53.358;-1.488;2022-11-18T06:42:32;98302.14;;;8.67;78.39
65784;BME280;52532;53.358;-1.488;2022-11-18T06:46:40;98318.30;;;8.06;79.62
65784;BME280;52532;53.358;-1.488;2022-11-18T06:49:59;98318.76;;;8.56;77.85
65784;BME280;52532;53.358;-1.488;2022-11-18T06:53:01;98323.14;;;9.58;74.37
65784;BME280;52532;53.358;-1.488;2022-11-18T06:56:06;98328.56;;;9.21;75.30
65784;BME280;52532;53.358;-1.488;2022-11-18T06:59:09;98332.77;;;9.14;74.42
65784;BME280;52532;53.358;-1.488;2022-11-18T07:02:13;98341.40;;;9.25;75.23
65784;BME280;52532;53.358;-1.488;2022-11-18T07:05:16;98345.47;;;8.43;81.33
65784;BME280;52532;53.358;-1.488;2022-11-18T07:08:19;98356.21;;;8.10;79.99
65784;BME280;52532;53.358;-1.488;2022-11-18T07:11:23;98361.87;;;7.61;81.85
65784;BME280;52532;53.358;-1.488;2022-11-18T07:14:27;98361.35;;;8.57;81.40
65784;BME280;52532;53.358;-1.488;2022-11-18T07:17:30;98371.13;;;9.41;79.56
65784;BME280;52532;53.358;-1.488;2022-11-18T07:20:33;98374.31;;;8.37;82.58
65784;BME280;52532;53.358;-1.488;2022-11-18T07:23:36;98379.48;;;7.80;85.40
65784;BME280;52532;53.358;-1.488;2022-11-18T07:26:40;98397.24;;;7.22;87.09
65784;BME280;52532;53.358;-1.488;2022-11-18T07:29:49;98382.06;;;8.21;84.20
65784;BME280;52532;53.358;-1.488;2022-11-18T07:32:52;98387.34;;;7.33;87.32
65784;BME280;52532;53.358;-1.488;2022-11-18T07:35:55;98391.53;;;7.77;83.03
65784;BME280;52532;53.358;-1.488;2022-11-18T07:38:58;98393.39;;;8.82;79.48
65784;BME280;52532;53.358;-1.488;2022-11-18T07:42:02;98400.30;;;7.78;83.75
65784;BME280;52532;53.358;-1.488;2022-11-18T07:45:05;98404.79;;;7.10;85.48
65784;BME280;52532;53.358;-1.488;2022-11-18T07:48:08;98419.24;;;8.11;80.81
65784;BME280;52532;53.358;-1.488;2022-11-18T07:51:12;98421.73;;;8.32;80.43
65784;BME280;52532;53.358;-1.488;2022-11-18T07:54:16;98429.78;;;7.79;79.46
65784;BME280;52532;53.358;-1.488;2022-11-18T07:57:19;98430.85;;;9.33;75.59
65784;BME280;52532;53.358;-1.488;2022-11-18T08:00:22;98449.47;;;9.05;76.35
65784;BME280;52532;53.358;-1.488;2022-11-18T08:03:26;98459.38;;;9.60;75.14
65784;BME280;52532;53.358;-1.488;2022-11-18T08:06:31;98468.99;;;8.19;78.97
65784;BME280;52532;53.358;-1.488;2022-11-18T08:09:35;98477.68;;;7.58;80.63
65784;BME280;52532;53.358;-1.488;2022-11-18T08:12:38;98490.43;;;9.63;76.88
65784;BME280;52532;53.358;-1.488;2022-11-18T08:15:41;98500.04;;;8.57;77.89
65784;BME280;52532;53.358;-1.488;2022-11-18T08:18:44;98507.74;;;7.88;79.05
65784;BME280;52532;53.358;-1.488;2022-11-18T08:21:47;98518.21;;;8.53;78.75
65784;BME280;52532;53.358;-1.488;2022-11-18T08:24:50;98523.00;;;10.43;72.04
65784;BME280;52532;53.358;-1.488;2022-11-18T08:27:53;98524.88;;;9.40;73.08
65784;BME280;52532;53.358;-1.488;2022-11-18T08:30:56;98531.08;;;9.19;75.06
65784;BME280;52532;53.358;-1.488;2022-11-18T08:34:00;98543.35;;;8.83;77.56
65784;BME280;52532;53.358;-1.488;2022-11-18T08:37:03;98544.06;;;10.08;71.58
65784;BME280;52532;53.358;-1.488;2022-11-18T08:40:07;98551.66;;;10.25;68.42
65784;BME280;52532;53.358;-1.488;2022-11-18T08:43:11;98561.05;;;10.62;67.75
65784;BME280;52532;53.358;-1.488;2022-11-18T08:46:17;98564.35;;;9.89;69.45
65784;BME280;52532;53.358;-1.488;2022-11-18T08:49:28;98571.93;;;10.28;68.36
65784;BME280;52532;53.358;-1.488;2022-11-18T08:52:30;98574.19;;;8.84;71.69
65784;BME280;52532;53.358;-1.488;2022-11-18T08:55:33;98580.19;;;10.86;68.81
65784;BME280;52532;53.358;-1.488;2022-11-18T08:58:36;98588.87;;;10.08;69.08
65784;BME280;52532;53.358;-1.488;2022-11-18T09:01:39;98595.36;;;12.24;63.03
65784;BME280;52532;53.358;-1.488;2022-11-18T09:04:46;98604.44;;;12.20;61.36
65784;BME280;52532;53.358;-1.488;2022-11-18T09:07:49;98615.61;;;12.67;58.38
65784;BME280;52532;53.358;-1.488;2022-11-18T09:10:52;98621.86;;;11.39;61.23
65784;BME280;52532;53.358;-1.488;2022-11-18T09:13:56;98631.27;;;12.93;57.86
65784;BME280;52532;53.358;-1.488;2022-11-18T09:17:00;98632.96;;;14.70;53.89
65784;BME280;52532;53.358;-1.488;2022-11-18T09:20:03;98636.61;;;13.54;55.31
65784;BME280;52532;53.358;-1.488;2022-11-18T09:23:06;98642.49;;;13.11;55.81
65784;BME280;52532;53.358;-1.488;2022-11-18T09:26:11;98643.77;;;12.23;59.87
65784;BME280;52532;53.358;-1.488;2022-11-18T09:29:14;98656.30;;;10.49;63.39
65784;BME280;52532;53.358;-1.488;2022-11-18T09:32:17;98657.36;;;13.10;58.70
65784;BME280;52532;53.358;-1.488;2022-11-18T09:35:21;98665.61;;;11.48;64.60
65784;BME280;52532;53.358;-1.488;2022-11-18T09:38:23;98674.46;;;11.85;62.06
65784;BME280;52532;53.358;-1.488;2022-11-18T09:41:39;98681.38;;;8.98;69.42
65784;BME280;52532;53.358;-1.488;2022-11-18T09:44:55;98681.00;;;11.39;63.93
65784;BME280;52532;53.358;-1.488;2022-11-18T09:48:06;98685.04;;;10.05;67.09
65784;BME280;52532;53.358;-1.488;2022-11-18T09:51:15;98700.61;;;9.00;69.78
65784;BME280;52532;53.358;-1.488;2022-11-18T09:54:20;98692.29;;;10.24;68.70
65784;BME280;52532;53.358;-1.488;2022-11-18T09:57:27;98702.05;;;8.68;73.59
65784;BME280;52532;53.358;-1.488;2022-11-18T10:00:32;98709.52;;;10.29;69.33
65784;BME280;52532;53.358;-1.488;2022-11-18T10:03:37;98715.08;;;9.80;68.79
65784;BME280;52532;53.358;-1.488;2022-11-18T10:06:40;98714.63;;;11.47;64.95
65784;BME280;52532;53.358;-1.488;2022-11-18T10:09:45;98718.20;;;10.32;66.68
65784;BME280;52532;53.358;-1.488;2022-11-18T10:12:54;98724.46;;;11.58;64.09
65784;BME280;52532;53.358;-1.488;2022-11-18T10:16:05;98735.86;;;10.76;65.45
65784;BME280;52532;53.358;-1.488;2022-11-18T10:19:23;98738.81;;;10.49;66.65
65784;BME280;52532;53.358;-1.488;2022-11-18T10:22:32;98751.58;;;9.35;69.26
65784;BME280;52532;53.358;-1.488;2022-11-18T10:25:35;98754.61;;;11.40;63.10
65784;BME280;52532;53.358;-1.488;2022-11-18T10:28:38;98757.02;;;11.28;62.61
65784;BME280;52532;53.358;-1.488;2022-11-18T10:31:53;98765.75;;;10.42;66.12
65784;BME280;52532;53.358;-1.488;2022-11-18T10:34:57;98770.07;;;9.47;70.23
65784;BME280;52532;53.358;-1.488;2022-11-18T10:38:03;98782.94;;;9.81;69.41
65784;BME280;52532;53.358;-1.488;2022-11-18T10:41:08;98777.41;;;9.89;69.85
65784;BME280;52532;53.358;-1.488;2022-11-18T10:44:45;98778.13;;;10.11;67.97
65784;BME280;52532;53.358;-1.488;2022-11-18T10:47:57;98776.14;;;11.66;66.30
65784;BME280;52532;53.358;-1.488;2022-11-18T10:51:19;98790.11;;;10.18;67.04
65784;BME280;52532;53.358;-1.488;2022-11-18T10:54:23;98792.10;;;11.00;65.19
65784;BME280;52532;53.358;-1.488;2022-11-18T10:57:26;98796.01;;;11.16;66.20
65784;BME280;52532;53.358;-1.488;2022-11-18T11:00:38;98799.22;;;12.01;61.61
65784;BME280;52532;53.358;-1.488;2022-11-18T11:03:51;98808.54;;;11.05;63.78
65784;BME280;52532;53.358;-1.488;2022-11-18T11:06:57;98806.33;;;11.77;62.99
65784;BME280;52532;53.358;-1.488;2022-11-18T11:10:17;98817.33;;;10.96;64.59
65784;BME280;52532;53.358;-1.488;2022-11-18T11:13:21;98823.50;;;10.71;65.47
65784;BME280;52532;53.358;-1.488;2022-11-18T11:16:26;98829.87;;;9.70;70.16
65784;BME280;52532;53.358;-1.488;2022-11-18T11:19:37;98836.09;;;11.42;64.97
65784;BME280;52532;53.358;-1.488;2022-11-18T11:22:41;98842.18;;;10.29;66.43
65784;BME280;52532;53.358;-1.488;2022-11-18T11:25:49;98846.18;;;10.41;66.31
65784;BME280;52532;53.358;-1.488;2022-11-18T11:28:59;98848.15;;;11.45;64.80
65784;BME280;52532;53.358;-1.488;2022-11-18T11:32:13;98860.20;;;9.48;69.66
65784;BME280;52532;53.358;-1.488;2022-11-18T11:35:21;98855.15;;;12.34;62.24
65784;BME280;52532;53.358;-1.488;2022-11-18T11:38:34;98860.26;;;12.39;61.05
65784;BME280;52532;53.358;-1.488;2022-11-18T11:41:47;98866.71;;;12.21;61.33
65784;BME280;52532;53.358;-1.488;2022-11-18T11:45:14;98871.73;;;14.23;57.21
65784;BME280;52532;53.358;-1.488;2022-11-18T11:48:31;98875.98;;;14.25;57.12
65784;BME280;52532;53.358;-1.488;2022-11-18T11:51:44;98875.85;;;13.28;59.87
65784;BME280;52532;53.358;-1.488;2022-11-18T11:54:54;98883.94;;;10.08;66.08
65784;BME280;52532;53.358;-1.488;2022-11-18T11:58:10;98889.86;;;12.48;61.67
65784;BME280;52532;53.358;-1.488;2022-11-18T12:01:21;98890.32;;;9.59;67.35
65784;BME280;52532;53.358;-1.488;2022-11-18T12:04:35;98894.29;;;14.36;58.11
65784;BME280;52532;53.358;-1.488;2022-11-18T12:07:45;98907.38;;;11.05;64.44
65784;BME280;52532;53.358;-1.488;2022-11-18T12:10:54;98903.81;;;11.43;64.88
65784;BME280;52532;53.358;-1.488;2022-11-18T12:14:02;98913.27;;;12.44;63.75
65784;BME280;52532;53.358;-1.488;2022-11-18T12:17:17;98932.18;;;10.97;65.73
65784;BME280;52532;53.358;-1.488;2022-11-18T12:20:55;98935.48;;;10.74;68.78
65784;BME280;52532;53.358;-1.488;2022-11-18T12:24:25;98936.74;;;10.07;71.31
65784;BME280;52532;53.358;-1.488;2022-11-18T12:28:06;98945.34;;;11.38;68.95
65784;BME280;52532;53.358;-1.488;2022-11-18T12:31:31;98946.02;;;9.96;73.19
65784;BME280;52532;53.358;-1.488;2022-11-18T12:34:38;98946.52;;;12.11;66.39
65784;BME280;52532;53.358;-1.488;2022-11-18T12:37:57;98951.67;;;10.99;69.72
65784;BME280;52532;53.358;-1.488;2022-11-18T12:41:00;98952.72;;;12.56;64.06
65784;BME280;52532;53.358;-1.488;2022-11-18T12:46:51;98967.55;;;11.79;64.35
65784;BME280;52532;53.358;-1.488;2022-11-18T12:50:13;98978.78;;;9.84;68.55
65784;BME280;52532;53.358;-1.488;2022-11-18T12:53:32;98981.45;;;11.37;65.75
65784;BME280;52532;53.358;-1.488;2022-11-18T12:56:37;98988.47;;;9.84;70.09
65784;BME280;52532;53.358;-1.488;2022-11-18T12:59:40;98988.37;;;10.34;68.67
65784;BME280;52532;53.358;-1.488;2022-11-18T13:02:50;98991.48;;;9.37;72.67
65784;BME280;52532;53.358;-1.488;2022-11-18T13:06:19;98995.38;;;8.09;77.58
65784;BME280;52532;53.358;-1.488;2022-11-18T13:09:31;99005.10;;;11.23;69.77
65784;BME280;52532;53.358;-1.488;2022-11-18T13:12:35;99004.92;;;10.38;71.07
65784;BME280;52532;53.358;-1.488;2022-11-18T13:15:41;99005.62;;;10.95;67.95
65784;BME280;52532;53.358;-1.488;2022-11-18T13:20:55;99008.10;;;12.45;63.92
65784;BME280;52532;53.358;-1.488;2022-11-18T13:23:59;99015.42;;;11.21;66.80
65784;BME280;52532;53.358;-1.488;2022-11-18T13:27:03;99019.55;;;12.17;65.96
65784;BME280;52532;53.358;-1.488;2022-11-18T13:30:10;99020.91;;;12.01;66.36
65784;BME280;52532;53.358;-1.488;2022-11-18T13:33:14;99033.20;;;10.53;68.20
65784;BME280;52532;53.358;-1.488;2022-11-18T13:36:18;99031.80;;;11.40;66.41
65784;BME280;52532;53.358;-1.488;2022-11-18T13:39:23;99035.22;;;10.92;66.94
65784;BME280;52532;53.358;-1.488;2022-11-18T13:45:40;99037.68;;;13.72;60.35
65784;BME280;52532;53.358;-1.488;2022-11-18T13:48:47;99040.30;;;12.69;59.61
65784;BME280;52532;53.358;-1.488;2022-11-18T13:55:07;99042.92;;;11.84;61.91
65784;BME280;52532;53.358;-1.488;2022-11-18T13:58:31;99052.03;;;10.54;64.35
65784;BME280;52532;53.358;-1.488;2022-11-18T14:01:35;99054.17;;;11.02;67.14
65784;BME280;52532;53.358;-1.488;2022-11-18T14:04:48;99064.26;;;12.31;61.92
65784;BME280;52532;53.358;-1.488;2022-11-18T14:07:58;99068.55;;;11.99;61.67
65784;BME280;52532;53.358;-1.488;2022-11-18T14:11:02;99072.59;;;12.23;60.91
65784;BME280;52532;53.358;-1.488;2022-11-18T14:14:05;99077.64;;;13.19;58.85
65784;BME280;52532;53.358;-1.488;2022-11-18T14:17:18;99089.37;;;12.98;59.90
65784;BME280;52532;53.358;-1.488;2022-11-18T14:20:21;99088.11;;;12.66;59.39
65784;BME280;52532;53.358;-1.488;2022-11-18T14:23:28;99096.69;;;12.68;60.46
65784;BME280;52532;53.358;-1.488;2022-11-18T14:26:33;99100.52;;;11.52;63.19
65784;BME280;52532;53.358;-1.488;2022-11-18T14:29:36;99102.06;;;12.77;60.86
65784;BME280;52532;53.358;-1.488;2022-11-18T14:32:39;99110.58;;;11.40;64.34
65784;BME280;52532;53.358;-1.488;2022-11-18T14:35:44;99117.52;;;9.58;69.27
65784;BME280;52532;53.358;-1.488;2022-11-18T14:38:50;99126.66;;;11.41;65.52
65784;BME280;52532;53.358;-1.488;2022-11-18T14:41:54;99127.08;;;9.92;67.06
65784;BME280;52532;53.358;-1.488;2022-11-18T14:44:57;99136.29;;;12.86;61.29
65784;BME280;52532;53.358;-1.488;2022-11-18T14:48:00;99141.76;;;11.81;63.75
65784;BME280;52532;53.358;-1.488;2022-11-18T14:51:03;99145.65;;;12.64;59.85
65784;BME280;52532;53.358;-1.488;2022-11-18T14:54:10;99149.26;;;10.65;65.72
65784;BME280;52532;53.358;-1.488;2022-11-18T14:57:15;99169.44;;;10.60;64.44
65784;BME280;52532;53.358;-1.488;2022-11-18T15:00:20;99165.17;;;12.28;61.75
65784;BME280;52532;53.358;-1.488;2022-11-18T15:03:23;99165.55;;;10.96;67.71
65784;BME280;52532;53.358;-1.488;2022-11-18T15:06:26;99175.50;;;10.98;66.42
65784;BME280;52532;53.358;-1.488;2022-11-18T15:09:29;99185.30;;;11.02;65.58
65784;BME280;52532;53.358;-1.488;2022-11-18T15:12:32;99191.15;;;12.04;63.83
65784;BME280;52532;53.358;-1.488;2022-11-18T15:15:35;99194.23;;;12.56;62.00
65784;BME280;52532;53.358;-1.488;2022-11-18T15:18:38;99195.01;;;10.63;65.29
65784;BME280;52532;53.358;-1.488;2022-11-18T15:21:41;99200.05;;;12.11;62.40
65784;BME280;52532;53.358;-1.488;2022-11-18T15:24:44;99206.25;;;9.97;68.56
65784;BME280;52532;53.358;-1.488;2022-11-18T15:27:46;99208.02;;;10.97;64.15
65784;BME280;52532;53.358;-1.488;2022-11-18T15:30:49;99219.17;;;10.05;67.23
65784;BME280;52532;53.358;-1.488;2022-11-18T15:33:52;99223.86;;;9.44;71.45
65784;BME280;52532;53.358;-1.488;2022-11-18T15:36:55;99234.60;;;10.78;68.00
65784;BME280;52532;53.358;-1.488;2022-11-18T15:39:58;99231.78;;;9.05;71.27
65784;BME280;52532;53.358;-1.488;2022-11-18T15:43:01;99240.88;;;11.49;65.44
65784;BME280;52532;53.358;-1.488;2022-11-18T15:46:04;99244.78;;;11.60;64.71
65784;BME280;52532;53.358;-1.488;2022-11-18T15:49:12;99257.77;;;11.75;64.70
65784;BME280;52532;53.358;-1.488;2022-11-18T15:52:15;99261.07;;;9.81;70.61
65784;BME280;52532;53.358;-1.488;2022-11-18T15:55:20;99267.16;;;11.25;65.20
65784;BME280;52532;53.358;-1.488;2022-11-18T15:58:22;99271.87;;;11.02;66.18
65784;BME280;52532;53.358;-1.488;2022-11-18T16:01:27;99277.75;;;11.24;65.23
65784;BME280;52532;53.358;-1.488;2022-11-18T16:04:30;99283.91;;;10.59;67.49
65784;BME280;52532;53.358;-1.488;2022-11-18T16:07:33;99289.75;;;10.63;65.88
65784;BME280;52532;53.358;-1.488;2022-11-18T16:10:36;99296.00;;;13.04;60.30
65784;BME280;52532;53.358;-1.488;2022-11-18T16:15:50;99305.58;;;11.30;64.38
65784;BME280;52532;53.358;-1.488;2022-11-18T16:18:59;99309.49;;;12.03;63.78
65784;BME280;52532;53.358;-1.488;2022-11-18T16:22:02;99312.80;;;11.93;61.93
65784;BME280;52532;53.358;-1.488;2022-11-18T16:25:05;99318.24;;;10.11;65.21
65784;BME280;52532;53.358;-1.488;2022-11-18T16:28:09;99320.55;;;11.18;64.60
65784;BME280;52532;53.358;-1.488;2022-11-18T16:31:12;99323.18;;;8.92;69.70
65784;BME280;52532;53.358;-1.488;2022-11-18T16:34:51;99327.31;;;10.99;64.17
65784;BME280;52532;53.358;-1.488;2022-11-18T16:37:54;99337.72;;;10.49;65.12
65784;BME280;52532;53.358;-1.488;2022-11-18T16:40:58;99338.31;;;12.81;59.77